sensor_id;sensor_type;location;lat;lon;timestamp;P1;durP1;ratioP1;P2;durP2;ratioP2
48578;SDS011;34357;51.948;6.132;2022-11-12T00:02:36;41.35;;;24.02;;
48578;SDS011;34357;51.948;6.132;2022-11-12T00:05:21;35.00;;;21.23;;
48578;SDS011;34357;51.948;6.132;2022-11-12T00:08:05;33.88;;;20.40;;
48578;SDS011;34357;51.948;6.132;2022-11-12T00:10:49;34.33;;;21.50;;
48578;SDS011;34357;51.948;6.132;2022-11-12T00:13:34;33.20;;;21.63;;
48578;SDS011;34357;51.948;6.132;2022-11-12T00:16:18;32.58;;;19.60;;
48578;SDS011;34357;51.948;6.132;2022-11-12T00:19:02;28.55;;;18.52;;
48578;SDS011;34357;51.948;6.132;2022-11-12T00:21:46;32.47;;;19.42;;
48578;SDS011;34357;51.948;6.132;2022-11-12T00:24:31;29.73;;;19.70;;
48578;SDS011;34357;51.948;6.132;2022-11-12T00:27:15;26.70;;;18.75;;
48578;SDS011;34357;51.948;6.132;2022-11-12T00:29:59;28.58;;;17.77;;
48578;SDS011;34357;51.948;6.132;2022-11-12T00:32:44;27.70;;;18.75;;
48578;SDS011;34357;51.948;6.132;2022-11-12T00:35:30;27.27;;;17.88;;
48578;SDS011;34357;51.948;6.132;2022-11-12T00:38:15;26.13;;;17.17;;
48578;SDS011;34357;51.948;6.132;2022-11-12T00:41:00;27.95;;;17.65;;
48578;SDS011;34357;51.948;6.132;2022-11-12T00:43:44;26.75;;;17.13;;
48578;SDS011;34357;51.948;6.132;2022-11-12T00:46:28;27.85;;;18.17;;
48578;SDS011;34357;51.948;6.132;2022-11-12T00:49:13;29.58;;;19.15;;
48578;SDS011;34357;51.948;6.132;2022-11-12T00:51:57;28.85;;;18.08;;
48578;SDS011;34357;51.948;6.132;2022-11-12T00:54:42;28.90;;;18.15;;
48578;SDS011;34357;51.948;6.132;2022-11-12T00:57:26;30.70;;;18.35;;
48578;SDS011;34357;51.948;6.132;2022-11-12T01:00:13;33.45;;;18.40;;
48578;SDS011;34357;51.948;6.132;2022-11-12T01:03:00;25.35;;;16.70;;
48578;SDS011;34357;51.948;6.132;2022-11-12T01:05:44;26.30;;;16.77;;
48578;SDS011;34357;51.948;6.132;2022-11-12T01:08:29;27.63;;;15.95;;
48578;SDS011;34357;51.948;6.132;2022-11-12T01:11:17;26.17;;;16.63;;
48578;SDS011;34357;51.948;6.132;2022-11-12T01:14:04;26.33;;;15.90;;
48578;SDS011;34357;51.948;6.132;2022-11-12T01:16:49;30.85;;;16.65;;
48578;SDS011;34357;51.948;6.132;2022-11-12T01:19:34;23.30;;;15.48;;
48578;SDS011;34357;51.948;6.132;2022-11-12T01:22:19;23.98;;;15.65;;
48578;SDS011;34357;51.948;6.132;2022-11-12T01:25:03;20.55;;;14.95;;
48578;SDS011;34357;51.948;6.132;2022-11-12T01:27:48;19.92;;;13.63;;
48578;SDS011;34357;51.948;6.132;2022-11-12T01:30:32;22.20;;;14.65;;
48578;SDS011;34357;51.948;6.132;2022-11-12T01:33:16;22.88;;;14.60;;
48578;SDS011;34357;51.948;6.132;2022-11-12T01:36:01;21.00;;;13.90;;
48578;SDS011;34357;51.948;6.132;2022-11-12T01:38:45;23.50;;;13.70;;
48578;SDS011;34357;51.948;6.132;2022-11-12T01:41:31;24.27;;;13.93;;
48578;SDS011;34357;51.948;6.132;2022-11-12T01:44:19;23.67;;;14.00;;
48578;SDS011;34357;51.948;6.132;2022-11-12T01:50:09;19.17;;;12.82;;
48578;SDS011;34357;51.948;6.132;2022-11-12T01:53:16;23.80;;;14.90;;
48578;SDS011;34357;51.948;6.132;2022-11-12T01:56:03;20.65;;;14.23;;
48578;SDS011;34357;51.948;6.132;2022-11-12T01:58:51;19.33;;;13.02;;
48578;SDS011;34357;51.948;6.132;2022-11-12T02:01:57;26.70;;;13.77;;
48578;SDS011;34357;51.948;6.132;2022-11-12T02:04:42;24.63;;;14.85;;
48578;SDS011;34357;51.948;6.132;2022-11-12T02:07:27;20.30;;;14.32;;
48578;SDS011;34357;51.948;6.132;2022-11-12T02:10:13;21.85;;;14.63;;
48578;SDS011;34357;51.948;6.132;2022-11-12T02:12:57;24.38;;;13.35;;
48578;SDS011;34357;51.948;6.132;2022-11-12T02:16:01;18.10;;;12.52;;
48578;SDS011;34357;51.948;6.132;2022-11-12T02:18:46;22.10;;;13.32;;
48578;SDS011;34357;51.948;6.132;2022-11-12T02:21:30;28.35;;;14.80;;
48578;SDS011;34357;51.948;6.132;2022-11-12T02:26:59;20.25;;;13.85;;
48578;SDS011;34357;51.948;6.132;2022-11-12T02:29:44;21.67;;;13.57;;
48578;SDS011;34357;51.948;6.132;2022-11-12T02:32:31;24.45;;;14.55;;
48578;SDS011;34357;51.948;6.132;2022-11-12T02:35:16;25.20;;;14.23;;
48578;SDS011;34357;51.948;6.132;2022-11-12T02:38:00;19.85;;;13.07;;
48578;SDS011;34357;51.948;6.132;2022-11-12T02:40:45;18.13;;;13.32;;
48578;SDS011;34357;51.948;6.132;2022-11-12T02:43:29;22.63;;;13.98;;
48578;SDS011;34357;51.948;6.132;2022-11-12T02:46:14;22.15;;;13.57;;
48578;SDS011;34357;51.948;6.132;2022-11-12T02:48:58;19.35;;;13.32;;
48578;SDS011;34357;51.948;6.132;2022-11-12T02:51:42;19.10;;;13.40;;
48578;SDS011;34357;51.948;6.132;2022-11-12T02:54:27;18.73;;;12.90;;
48578;SDS011;34357;51.948;6.132;2022-11-12T02:57:11;21.17;;;12.60;;
48578;SDS011;34357;51.948;6.132;2022-11-12T02:59:55;20.08;;;13.60;;
48578;SDS011;34357;51.948;6.132;2022-11-12T03:02:39;21.17;;;14.05;;
48578;SDS011;34357;51.948;6.132;2022-11-12T03:05:41;17.90;;;12.73;;
48578;SDS011;34357;51.948;6.132;2022-11-12T03:08:26;18.33;;;13.13;;
48578;SDS011;34357;51.948;6.132;2022-11-12T03:11:12;16.10;;;12.50;;
48578;SDS011;34357;51.948;6.132;2022-11-12T03:13:57;20.55;;;12.82;;
48578;SDS011;34357;51.948;6.132;2022-11-12T03:16:41;18.52;;;12.93;;
48578;SDS011;34357;51.948;6.132;2022-11-12T03:19:26;20.42;;;12.50;;
48578;SDS011;34357;51.948;6.132;2022-11-12T03:22:10;17.15;;;13.00;;
48578;SDS011;34357;51.948;6.132;2022-11-12T03:24:54;20.30;;;12.77;;
48578;SDS011;34357;51.948;6.132;2022-11-12T03:27:39;19.13;;;13.02;;
48578;SDS011;34357;51.948;6.132;2022-11-12T03:30:24;20.30;;;14.38;;
48578;SDS011;34357;51.948;6.132;2022-11-12T03:33:13;19.30;;;14.48;;
48578;SDS011;34357;51.948;6.132;2022-11-12T03:35:58;24.85;;;16.63;;
48578;SDS011;34357;51.948;6.132;2022-11-12T03:38:42;23.13;;;16.13;;
48578;SDS011;34357;51.948;6.132;2022-11-12T03:41:27;23.02;;;15.88;;
48578;SDS011;34357;51.948;6.132;2022-11-12T03:44:11;25.75;;;16.30;;
48578;SDS011;34357;51.948;6.132;2022-11-12T03:46:56;20.95;;;14.90;;
48578;SDS011;34357;51.948;6.132;2022-11-12T03:49:40;21.92;;;14.73;;
48578;SDS011;34357;51.948;6.132;2022-11-12T03:52:24;21.08;;;15.10;;
48578;SDS011;34357;51.948;6.132;2022-11-12T03:55:09;20.55;;;13.63;;
48578;SDS011;34357;51.948;6.132;2022-11-12T03:57:53;22.15;;;13.98;;
48578;SDS011;34357;51.948;6.132;2022-11-12T04:00:38;20.00;;;14.07;;
48578;SDS011;34357;51.948;6.132;2022-11-12T04:03:22;19.27;;;14.15;;
48578;SDS011;34357;51.948;6.132;2022-11-12T04:06:07;25.17;;;14.93;;
48578;SDS011;34357;51.948;6.132;2022-11-12T04:09:10;20.23;;;14.32;;
48578;SDS011;34357;51.948;6.132;2022-11-12T04:11:55;18.45;;;13.48;;
48578;SDS011;34357;51.948;6.132;2022-11-12T04:14:59;19.98;;;13.48;;
48578;SDS011;34357;51.948;6.132;2022-11-12T04:17:44;19.05;;;13.40;;
48578;SDS011;34357;51.948;6.132;2022-11-12T04:20:47;20.30;;;14.32;;
48578;SDS011;34357;51.948;6.132;2022-11-12T04:23:50;26.17;;;14.32;;
48578;SDS011;34357;51.948;6.132;2022-11-12T04:26:34;24.90;;;13.98;;
48578;SDS011;34357;51.948;6.132;2022-11-12T04:29:19;18.98;;;13.85;;
48578;SDS011;34357;51.948;6.132;2022-11-12T04:32:22;21.20;;;14.13;;
48578;SDS011;34357;51.948;6.132;2022-11-12T04:35:07;20.65;;;13.32;;
48578;SDS011;34357;51.948;6.132;2022-11-12T04:37:52;17.08;;;11.95;;
48578;SDS011;34357;51.948;6.132;2022-11-12T04:40:37;20.67;;;13.25;;
48578;SDS011;34357;51.948;6.132;2022-11-12T04:43:40;20.15;;;12.93;;
48578;SDS011;34357;51.948;6.132;2022-11-12T04:46:43;20.17;;;12.88;;
48578;SDS011;34357;51.948;6.132;2022-11-12T04:49:28;17.13;;;11.75;;
48578;SDS011;34357;51.948;6.132;2022-11-12T04:52:12;17.92;;;11.82;;
48578;SDS011;34357;51.948;6.132;2022-11-12T04:54:57;21.13;;;13.10;;
48578;SDS011;34357;51.948;6.132;2022-11-12T04:57:42;17.98;;;12.30;;
48578;SDS011;34357;51.948;6.132;2022-11-12T05:00:27;18.95;;;12.35;;
48578;SDS011;34357;51.948;6.132;2022-11-12T05:03:11;19.05;;;12.23;;
48578;SDS011;34357;51.948;6.132;2022-11-12T05:06:00;19.58;;;12.52;;
48578;SDS011;34357;51.948;6.132;2022-11-12T05:08:45;18.42;;;12.13;;
48578;SDS011;34357;51.948;6.132;2022-11-12T05:11:29;20.10;;;13.68;;
48578;SDS011;34357;51.948;6.132;2022-11-12T05:14:14;18.67;;;12.57;;
48578;SDS011;34357;51.948;6.132;2022-11-12T05:16:59;18.23;;;12.38;;
48578;SDS011;34357;51.948;6.132;2022-11-12T05:19:43;18.13;;;12.68;;
48578;SDS011;34357;51.948;6.132;2022-11-12T05:22:27;16.65;;;12.60;;
48578;SDS011;34357;51.948;6.132;2022-11-12T05:25:12;18.05;;;13.07;;
48578;SDS011;34357;51.948;6.132;2022-11-12T05:27:56;17.75;;;12.85;;
48578;SDS011;34357;51.948;6.132;2022-11-12T05:30:40;17.45;;;11.82;;
48578;SDS011;34357;51.948;6.132;2022-11-12T05:33:24;18.77;;;13.15;;
48578;SDS011;34357;51.948;6.132;2022-11-12T05:36:09;17.05;;;12.07;;
48578;SDS011;34357;51.948;6.132;2022-11-12T05:38:53;16.85;;;12.80;;
48578;SDS011;34357;51.948;6.132;2022-11-12T05:41:37;16.83;;;12.75;;
48578;SDS011;34357;51.948;6.132;2022-11-12T05:44:22;20.27;;;12.82;;
48578;SDS011;34357;51.948;6.132;2022-11-12T05:47:06;21.10;;;12.77;;
48578;SDS011;34357;51.948;6.132;2022-11-12T05:49:50;17.52;;;12.18;;
48578;SDS011;34357;51.948;6.132;2022-11-12T05:52:35;19.38;;;12.35;;
48578;SDS011;34357;51.948;6.132;2022-11-12T05:55:19;18.15;;;11.65;;
48578;SDS011;34357;51.948;6.132;2022-11-12T05:58:04;15.27;;;12.07;;
48578;SDS011;34357;51.948;6.132;2022-11-12T06:00:49;16.48;;;11.88;;
48578;SDS011;34357;51.948;6.132;2022-11-12T06:03:33;15.88;;;11.02;;
48578;SDS011;34357;51.948;6.132;2022-11-12T06:06:18;20.45;;;11.30;;
48578;SDS011;34357;51.948;6.132;2022-11-12T06:09:02;14.20;;;10.40;;
48578;SDS011;34357;51.948;6.132;2022-11-12T06:11:47;14.48;;;10.35;;
48578;SDS011;34357;51.948;6.132;2022-11-12T06:14:31;17.05;;;11.32;;
48578;SDS011;34357;51.948;6.132;2022-11-12T06:17:16;17.58;;;11.35;;
48578;SDS011;34357;51.948;6.132;2022-11-12T06:20:00;16.13;;;11.00;;
48578;SDS011;34357;51.948;6.132;2022-11-12T06:22:44;17.42;;;10.32;;
48578;SDS011;34357;51.948;6.132;2022-11-12T06:25:29;15.30;;;10.40;;
48578;SDS011;34357;51.948;6.132;2022-11-12T06:28:13;15.57;;;11.05;;
48578;SDS011;34357;51.948;6.132;2022-11-12T06:30:58;14.65;;;9.98;;
48578;SDS011;34357;51.948;6.132;2022-11-12T06:33:42;16.52;;;10.57;;
48578;SDS011;34357;51.948;6.132;2022-11-12T06:36:28;15.52;;;10.57;;
48578;SDS011;34357;51.948;6.132;2022-11-12T06:39:12;15.23;;;9.85;;
48578;SDS011;34357;51.948;6.132;2022-11-12T06:41:57;16.65;;;11.98;;
48578;SDS011;34357;51.948;6.132;2022-11-12T06:44:41;13.68;;;10.75;;
48578;SDS011;34357;51.948;6.132;2022-11-12T06:47:26;17.98;;;11.20;;
48578;SDS011;34357;51.948;6.132;2022-11-12T06:50:10;16.63;;;10.38;;
48578;SDS011;34357;51.948;6.132;2022-11-12T06:52:58;14.93;;;9.95;;
48578;SDS011;34357;51.948;6.132;2022-11-12T06:55:43;14.35;;;10.07;;
48578;SDS011;34357;51.948;6.132;2022-11-12T06:58:27;17.85;;;10.80;;
48578;SDS011;34357;51.948;6.132;2022-11-12T07:01:13;17.48;;;10.95;;
48578;SDS011;34357;51.948;6.132;2022-11-12T07:03:59;16.95;;;11.05;;
48578;SDS011;34357;51.948;6.132;2022-11-12T07:06:43;17.70;;;12.73;;
48578;SDS011;34357;51.948;6.132;2022-11-12T07:09:27;15.55;;;12.43;;
48578;SDS011;34357;51.948;6.132;2022-11-12T07:12:12;20.27;;;13.57;;
48578;SDS011;34357;51.948;6.132;2022-11-12T07:14:56;18.15;;;13.68;;
48578;SDS011;34357;51.948;6.132;2022-11-12T07:17:43;16.75;;;12.70;;
48578;SDS011;34357;51.948;6.132;2022-11-12T07:20:29;19.40;;;12.43;;
48578;SDS011;34357;51.948;6.132;2022-11-12T07:23:13;19.58;;;12.57;;
48578;SDS011;34357;51.948;6.132;2022-11-12T07:26:01;18.45;;;13.23;;
48578;SDS011;34357;51.948;6.132;2022-11-12T07:28:50;18.63;;;13.02;;
48578;SDS011;34357;51.948;6.132;2022-11-12T07:31:35;21.15;;;15.18;;
48578;SDS011;34357;51.948;6.132;2022-11-12T07:34:19;20.77;;;14.50;;
48578;SDS011;34357;51.948;6.132;2022-11-12T07:37:04;20.38;;;14.25;;
48578;SDS011;34357;51.948;6.132;2022-11-12T07:39:48;18.88;;;13.35;;
48578;SDS011;34357;51.948;6.132;2022-11-12T07:42:33;17.88;;;11.68;;
48578;SDS011;34357;51.948;6.132;2022-11-12T07:45:18;17.33;;;12.45;;
48578;SDS011;34357;51.948;6.132;2022-11-12T07:48:02;19.48;;;13.20;;
48578;SDS011;34357;51.948;6.132;2022-11-12T07:50:46;16.02;;;12.10;;
48578;SDS011;34357;51.948;6.132;2022-11-12T07:53:30;16.95;;;11.77;;
48578;SDS011;34357;51.948;6.132;2022-11-12T07:56:16;18.55;;;11.93;;
48578;SDS011;34357;51.948;6.132;2022-11-12T07:59:01;18.45;;;13.00;;
48578;SDS011;34357;51.948;6.132;2022-11-12T08:01:46;17.38;;;12.77;;
48578;SDS011;34357;51.948;6.132;2022-11-12T08:04:30;17.95;;;12.95;;
48578;SDS011;34357;51.948;6.132;2022-11-12T08:07:15;21.48;;;13.73;;
48578;SDS011;34357;51.948;6.132;2022-11-12T08:09:59;17.98;;;14.50;;
48578;SDS011;34357;51.948;6.132;2022-11-12T08:12:43;22.88;;;15.00;;
48578;SDS011;34357;51.948;6.132;2022-11-12T08:15:28;29.38;;;19.23;;
48578;SDS011;34357;51.948;6.132;2022-11-12T08:18:12;22.35;;;15.25;;
48578;SDS011;34357;51.948;6.132;2022-11-12T08:20:58;21.80;;;15.10;;
48578;SDS011;34357;51.948;6.132;2022-11-12T08:23:43;24.55;;;14.60;;
48578;SDS011;34357;51.948;6.132;2022-11-12T08:26:28;20.33;;;14.30;;
48578;SDS011;34357;51.948;6.132;2022-11-12T08:29:12;21.58;;;14.10;;
48578;SDS011;34357;51.948;6.132;2022-11-12T08:31:57;16.50;;;12.30;;
48578;SDS011;34357;51.948;6.132;2022-11-12T08:34:41;17.20;;;11.85;;
48578;SDS011;34357;51.948;6.132;2022-11-12T08:37:26;13.85;;;10.57;;
48578;SDS011;34357;51.948;6.132;2022-11-12T08:40:10;12.77;;;9.80;;
48578;SDS011;34357;51.948;6.132;2022-11-12T08:42:58;16.45;;;9.05;;
48578;SDS011;34357;51.948;6.132;2022-11-12T08:45:44;17.52;;;10.15;;
48578;SDS011;34357;51.948;6.132;2022-11-12T08:48:29;13.23;;;9.40;;
48578;SDS011;34357;51.948;6.132;2022-11-12T08:51:14;21.25;;;10.15;;
48578;SDS011;34357;51.948;6.132;2022-11-12T08:53:58;16.40;;;11.27;;
48578;SDS011;34357;51.948;6.132;2022-11-12T08:56:43;15.23;;;11.57;;
48578;SDS011;34357;51.948;6.132;2022-11-12T08:59:27;18.67;;;11.35;;
48578;SDS011;34357;51.948;6.132;2022-11-12T09:02:11;17.00;;;11.02;;
48578;SDS011;34357;51.948;6.132;2022-11-12T09:04:56;14.95;;;10.95;;
48578;SDS011;34357;51.948;6.132;2022-11-12T09:07:40;16.15;;;11.40;;
48578;SDS011;34357;51.948;6.132;2022-11-12T09:10:25;15.27;;;11.13;;
48578;SDS011;34357;51.948;6.132;2022-11-12T09:13:10;19.30;;;10.80;;
48578;SDS011;34357;51.948;6.132;2022-11-12T09:15:58;18.45;;;11.25;;
48578;SDS011;34357;51.948;6.132;2022-11-12T09:18:47;15.82;;;11.43;;
48578;SDS011;34357;51.948;6.132;2022-11-12T09:21:31;16.67;;;11.93;;
48578;SDS011;34357;51.948;6.132;2022-11-12T09:24:15;16.48;;;12.52;;
48578;SDS011;34357;51.948;6.132;2022-11-12T09:27:00;15.40;;;12.18;;
48578;SDS011;34357;51.948;6.132;2022-11-12T09:29:44;15.90;;;12.13;;
48578;SDS011;34357;51.948;6.132;2022-11-12T09:32:29;18.48;;;12.63;;
48578;SDS011;34357;51.948;6.132;2022-11-12T09:35:13;16.70;;;11.73;;
48578;SDS011;34357;51.948;6.132;2022-11-12T09:37:58;15.98;;;11.15;;
48578;SDS011;34357;51.948;6.132;2022-11-12T09:43:41;15.50;;;9.13;;
48578;SDS011;34357;51.948;6.132;2022-11-12T09:46:39;12.75;;;9.98;;
48578;SDS011;34357;51.948;6.132;2022-11-12T09:49:31;10.50;;;8.50;;
48578;SDS011;34357;51.948;6.132;2022-11-12T09:52:23;10.30;;;8.00;;
48578;SDS011;34357;51.948;6.132;2022-11-12T09:55:16;13.63;;;9.50;;
48578;SDS011;34357;51.948;6.132;2022-11-12T10:01:12;11.30;;;8.43;;
48578;SDS011;34357;51.948;6.132;2022-11-12T10:13:04;9.63;;;8.60;;
48578;SDS011;34357;51.948;6.132;2022-11-12T10:16:07;11.10;;;8.18;;
48578;SDS011;34357;51.948;6.132;2022-11-12T10:25:56;14.32;;;8.13;;
48578;SDS011;34357;51.948;6.132;2022-11-12T10:28:51;9.95;;;7.68;;
48578;SDS011;34357;51.948;6.132;2022-11-12T10:32:00;11.40;;;7.82;;
48578;SDS011;34357;51.948;6.132;2022-11-12T10:34:45;12.30;;;8.50;;
48578;SDS011;34357;51.948;6.132;2022-11-12T10:40:33;11.23;;;7.68;;
48578;SDS011;34357;51.948;6.132;2022-11-12T10:43:21;9.60;;;7.18;;
48578;SDS011;34357;51.948;6.132;2022-11-12T10:46:21;8.65;;;7.10;;
48578;SDS011;34357;51.948;6.132;2022-11-12T10:51:57;11.15;;;7.78;;
48578;SDS011;34357;51.948;6.132;2022-11-12T10:54:42;10.65;;;7.72;;
48578;SDS011;34357;51.948;6.132;2022-11-12T10:57:26;10.63;;;7.57;;
48578;SDS011;34357;51.948;6.132;2022-11-12T11:02:55;11.77;;;7.82;;
48578;SDS011;34357;51.948;6.132;2022-11-12T11:05:51;11.82;;;8.50;;
48578;SDS011;34357;51.948;6.132;2022-11-12T11:08:42;12.82;;;8.48;;
48578;SDS011;34357;51.948;6.132;2022-11-12T11:11:28;9.95;;;7.40;;
48578;SDS011;34357;51.948;6.132;2022-11-12T11:14:30;9.27;;;7.47;;
48578;SDS011;34357;51.948;6.132;2022-11-12T11:17:17;8.35;;;6.30;;
48578;SDS011;34357;51.948;6.132;2022-11-12T11:20:05;7.95;;;5.60;;
48578;SDS011;34357;51.948;6.132;2022-11-12T11:23:03;9.60;;;6.22;;
48578;SDS011;34357;51.948;6.132;2022-11-12T11:25:57;10.30;;;6.20;;
48578;SDS011;34357;51.948;6.132;2022-11-12T11:29:17;9.02;;;6.22;;
48578;SDS011;34357;51.948;6.132;2022-11-12T11:41:22;10.68;;;7.45;;
48578;SDS011;34357;51.948;6.132;2022-11-12T11:47:27;9.75;;;7.93;;
48578;SDS011;34357;51.948;6.132;2022-11-12T11:50:26;11.93;;;7.32;;
48578;SDS011;34357;51.948;6.132;2022-11-12T11:56:12;11.05;;;7.43;;
48578;SDS011;34357;51.948;6.132;2022-11-12T11:59:11;10.07;;;7.43;;
48578;SDS011;34357;51.948;6.132;2022-11-12T12:11:36;10.27;;;7.80;;
48578;SDS011;34357;51.948;6.132;2022-11-12T12:18:06;10.50;;;7.50;;
48578;SDS011;34357;51.948;6.132;2022-11-12T12:21:15;11.13;;;7.57;;
48578;SDS011;34357;51.948;6.132;2022-11-12T12:24:02;10.60;;;7.40;;
48578;SDS011;34357;51.948;6.132;2022-11-12T12:29:46;14.85;;;10.57;;
48578;SDS011;34357;51.948;6.132;2022-11-12T12:44:29;13.60;;;9.45;;
48578;SDS011;34357;51.948;6.132;2022-11-12T12:50:24;12.23;;;8.35;;
48578;SDS011;34357;51.948;6.132;2022-11-12T12:53:17;12.73;;;8.23;;
48578;SDS011;34357;51.948;6.132;2022-11-12T12:59:17;14.10;;;9.00;;
48578;SDS011;34357;51.948;6.132;2022-11-12T13:02:13;11.07;;;8.35;;
48578;SDS011;34357;51.948;6.132;2022-11-12T13:05:03;14.02;;;9.32;;
48578;SDS011;34357;51.948;6.132;2022-11-12T13:07:48;11.82;;;7.95;;
48578;SDS011;34357;51.948;6.132;2022-11-12T13:13:26;10.40;;;7.18;;
48578;SDS011;34357;51.948;6.132;2022-11-12T13:16:54;11.80;;;7.63;;
48578;SDS011;34357;51.948;6.132;2022-11-12T13:19:38;10.65;;;7.57;;
48578;SDS011;34357;51.948;6.132;2022-11-12T13:28:03;11.20;;;7.20;;
48578;SDS011;34357;51.948;6.132;2022-11-12T13:33:33;9.95;;;7.35;;
48578;SDS011;34357;51.948;6.132;2022-11-12T13:36:24;13.20;;;8.52;;
48578;SDS011;34357;51.948;6.132;2022-11-12T13:39:14;11.82;;;8.02;;
48578;SDS011;34357;51.948;6.132;2022-11-12T13:42:07;10.52;;;6.63;;
48578;SDS011;34357;51.948;6.132;2022-11-12T13:45:16;14.85;;;8.30;;
48578;SDS011;34357;51.948;6.132;2022-11-12T13:48:17;15.18;;;8.48;;
48578;SDS011;34357;51.948;6.132;2022-11-12T13:51:04;29.17;;;12.52;;
48578;SDS011;34357;51.948;6.132;2022-11-12T13:53:55;14.02;;;7.65;;
48578;SDS011;34357;51.948;6.132;2022-11-12T13:56:40;15.70;;;7.72;;
48578;SDS011;34357;51.948;6.132;2022-11-12T13:59:25;19.77;;;9.73;;
48578;SDS011;34357;51.948;6.132;2022-11-12T14:02:18;10.13;;;6.70;;
48578;SDS011;34357;51.948;6.132;2022-11-12T14:05:18;8.38;;;5.65;;
48578;SDS011;34357;51.948;6.132;2022-11-12T14:11:18;9.50;;;5.72;;
48578;SDS011;34357;51.948;6.132;2022-11-12T14:23:21;9.82;;;6.32;;
48578;SDS011;34357;51.948;6.132;2022-11-12T14:26:08;11.18;;;6.32;;
48578;SDS011;34357;51.948;6.132;2022-11-12T14:28:56;12.38;;;6.28;;
48578;SDS011;34357;51.948;6.132;2022-11-12T14:31:42;9.18;;;6.55;;
48578;SDS011;34357;51.948;6.132;2022-11-12T14:34:33;11.02;;;7.15;;
48578;SDS011;34357;51.948;6.132;2022-11-12T14:37:28;13.32;;;7.53;;
48578;SDS011;34357;51.948;6.132;2022-11-12T14:40:18;11.13;;;6.75;;
48578;SDS011;34357;51.948;6.132;2022-11-12T14:43:03;17.20;;;8.07;;
48578;SDS011;34357;51.948;6.132;2022-11-12T14:45:49;12.90;;;6.93;;
48578;SDS011;34357;51.948;6.132;2022-11-12T14:48:45;12.18;;;6.90;;
48578;SDS011;34357;51.948;6.132;2022-11-12T14:52:31;13.90;;;7.60;;
48578;SDS011;34357;51.948;6.132;2022-11-12T14:55:18;12.13;;;7.25;;
48578;SDS011;34357;51.948;6.132;2022-11-12T14:58:05;13.93;;;8.55;;
48578;SDS011;34357;51.948;6.132;2022-11-12T15:00:54;14.30;;;7.35;;
48578;SDS011;34357;51.948;6.132;2022-11-12T15:03:39;14.65;;;7.72;;
48578;SDS011;34357;51.948;6.132;2022-11-12T15:06:30;14.68;;;7.50;;
48578;SDS011;34357;51.948;6.132;2022-11-12T15:09:17;18.00;;;8.25;;
48578;SDS011;34357;51.948;6.132;2022-11-12T15:12:08;15.75;;;8.65;;
48578;SDS011;34357;51.948;6.132;2022-11-12T15:15:06;17.17;;;8.18;;
48578;SDS011;34357;51.948;6.132;2022-11-12T15:18:00;14.98;;;7.75;;
48578;SDS011;34357;51.948;6.132;2022-11-12T15:21:03;18.75;;;8.65;;
48578;SDS011;34357;51.948;6.132;2022-11-12T15:24:35;15.43;;;7.80;;
48578;SDS011;34357;51.948;6.132;2022-11-12T15:36:03;28.65;;;13.40;;
48578;SDS011;34357;51.948;6.132;2022-11-12T15:38:51;27.10;;;11.80;;
48578;SDS011;34357;51.948;6.132;2022-11-12T15:41:36;27.17;;;12.68;;
48578;SDS011;34357;51.948;6.132;2022-11-12T15:44:21;22.60;;;11.77;;
48578;SDS011;34357;51.948;6.132;2022-11-12T15:47:07;24.65;;;12.57;;
48578;SDS011;34357;51.948;6.132;2022-11-12T15:49:56;22.85;;;11.55;;
48578;SDS011;34357;51.948;6.132;2022-11-12T15:52:41;23.95;;;11.48;;
48578;SDS011;34357;51.948;6.132;2022-11-12T15:55:26;24.20;;;11.88;;
48578;SDS011;34357;51.948;6.132;2022-11-12T15:58:13;23.27;;;11.38;;
48578;SDS011;34357;51.948;6.132;2022-11-12T16:01:02;20.77;;;10.57;;
48578;SDS011;34357;51.948;6.132;2022-11-12T16:03:47;22.55;;;12.00;;
48578;SDS011;34357;51.948;6.132;2022-11-12T16:06:32;22.35;;;10.77;;
48578;SDS011;34357;51.948;6.132;2022-11-12T16:09:16;18.67;;;10.70;;
48578;SDS011;34357;51.948;6.132;2022-11-12T16:12:00;21.80;;;10.90;;
48578;SDS011;34357;51.948;6.132;2022-11-12T16:14:45;22.90;;;11.52;;
48578;SDS011;34357;51.948;6.132;2022-11-12T16:17:30;21.63;;;11.35;;
48578;SDS011;34357;51.948;6.132;2022-11-12T16:20:15;24.33;;;11.98;;
48578;SDS011;34357;51.948;6.132;2022-11-12T16:23:01;24.70;;;12.27;;
48578;SDS011;34357;51.948;6.132;2022-11-12T16:25:47;28.48;;;13.05;;
48578;SDS011;34357;51.948;6.132;2022-11-12T16:28:31;27.30;;;13.02;;
48578;SDS011;34357;51.948;6.132;2022-11-12T16:31:18;26.65;;;13.85;;
48578;SDS011;34357;51.948;6.132;2022-11-12T16:34:03;28.60;;;13.38;;
48578;SDS011;34357;51.948;6.132;2022-11-12T16:36:48;25.20;;;12.65;;
48578;SDS011;34357;51.948;6.132;2022-11-12T16:39:32;23.77;;;12.65;;
48578;SDS011;34357;51.948;6.132;2022-11-12T16:42:17;22.15;;;12.35;;
48578;SDS011;34357;51.948;6.132;2022-11-12T16:45:01;26.40;;;13.07;;
48578;SDS011;34357;51.948;6.132;2022-11-12T16:47:47;22.45;;;12.88;;
48578;SDS011;34357;51.948;6.132;2022-11-12T16:50:33;28.08;;;15.07;;
48578;SDS011;34357;51.948;6.132;2022-11-12T16:53:17;25.00;;;14.25;;
48578;SDS011;34357;51.948;6.132;2022-11-12T16:56:01;26.55;;;14.13;;
48578;SDS011;34357;51.948;6.132;2022-11-12T16:58:46;27.52;;;14.18;;
48578;SDS011;34357;51.948;6.132;2022-11-12T17:01:32;28.77;;;14.32;;
48578;SDS011;34357;51.948;6.132;2022-11-12T17:04:17;23.33;;;13.93;;
48578;SDS011;34357;51.948;6.132;2022-11-12T17:07:03;26.55;;;14.43;;
48578;SDS011;34357;51.948;6.132;2022-11-12T17:09:49;25.40;;;14.45;;
48578;SDS011;34357;51.948;6.132;2022-11-12T17:12:35;26.40;;;14.73;;
48578;SDS011;34357;51.948;6.132;2022-11-12T17:15:19;26.02;;;13.73;;
48578;SDS011;34357;51.948;6.132;2022-11-12T17:18:03;24.77;;;15.50;;
48578;SDS011;34357;51.948;6.132;2022-11-12T17:20:47;28.65;;;14.50;;
48578;SDS011;34357;51.948;6.132;2022-11-12T17:23:32;28.13;;;15.50;;
48578;SDS011;34357;51.948;6.132;2022-11-12T17:26:18;25.50;;;16.00;;
48578;SDS011;34357;51.948;6.132;2022-11-12T17:29:03;31.42;;;16.55;;
48578;SDS011;34357;51.948;6.132;2022-11-12T17:31:47;40.38;;;20.67;;
48578;SDS011;34357;51.948;6.132;2022-11-12T17:34:32;33.83;;;19.48;;
48578;SDS011;34357;51.948;6.132;2022-11-12T17:37:16;38.10;;;23.08;;
48578;SDS011;34357;51.948;6.132;2022-11-12T17:40:01;49.00;;;25.83;;
48578;SDS011;34357;51.948;6.132;2022-11-12T17:42:46;49.22;;;26.73;;
48578;SDS011;34357;51.948;6.132;2022-11-12T17:45:30;43.97;;;24.98;;
48578;SDS011;34357;51.948;6.132;2022-11-12T17:48:15;46.58;;;23.77;;
48578;SDS011;34357;51.948;6.132;2022-11-12T17:51:04;43.70;;;23.88;;
48578;SDS011;34357;51.948;6.132;2022-11-12T17:53:56;35.42;;;19.98;;
48578;SDS011;34357;51.948;6.132;2022-11-12T17:56:40;35.72;;;20.23;;
48578;SDS011;34357;51.948;6.132;2022-11-12T17:59:24;31.55;;;17.75;;
48578;SDS011;34357;51.948;6.132;2022-11-12T18:02:10;30.83;;;17.88;;
48578;SDS011;34357;51.948;6.132;2022-11-12T18:04:55;36.38;;;19.10;;
48578;SDS011;34357;51.948;6.132;2022-11-12T18:07:39;32.78;;;19.08;;
48578;SDS011;34357;51.948;6.132;2022-11-12T18:10:23;31.65;;;18.92;;
48578;SDS011;34357;51.948;6.132;2022-11-12T18:13:08;38.67;;;20.70;;
48578;SDS011;34357;51.948;6.132;2022-11-12T18:15:52;35.00;;;19.80;;
48578;SDS011;34357;51.948;6.132;2022-11-12T18:18:36;34.05;;;19.70;;
48578;SDS011;34357;51.948;6.132;2022-11-12T18:21:21;38.53;;;19.92;;
48578;SDS011;34357;51.948;6.132;2022-11-12T18:24:11;37.92;;;20.45;;